Albany, New York
Traffic Map
Current Weather Conditions
Albany, New York
Broken Clouds
Broken Clouds
29°
Feels Like: 29°
Wind Chill: 29° Ceiling: 11000
Heat Index: 29° Visibility: 10mi
Dew Point: 17° Wind: 13mph
Humidity: 49% Direction: 340° (NNW)
Pressure: 29.85in Gusts: 0mph
Raw Report DataKALB 291851Z 34011KT 10SM FEW041 SCT045 BKN110 29/17 A2985 RMK AO2 SLP108 SCT V BKN CB DSNT SE MOV S T02890172
Traffic Incident Summary
Active as of:
Severity:
Category:
InformationThere was an issue retrieving the traffic information for this location. Please try a different location or try again shortly.
Advertisements
Track Severe Weather on mobile